Sierra Nevada Aquatic Research Lab (SNARL) Reserve, Santa Monica Mtns, California Weather observations

Data are for 10 minute period ending at time listed.
 Day   Time   Solar   Ave.   Ave.  Ave.  Vector  Max.   Baro.   Total    
  of    of     Rad.   Air    Rel.  Wind   Wind   Wind  Press.  Precip.   
Year   Day            Temp.  Hum.  Speed  Dir.   Gust                    
2014   (PST)  Kw/m2    F      %     mph   deg.    mph    mb.     in.     
-------------------------------------------------------------------------
 113   11:20   0.98   54.0    19    7.5    94    16.1   781.5    0.00 
 113   11:30   0.99   54.1    18    7.9    98    14.8   781.5    0.00 
 113   11:40   0.99   53.7    18    8.0    96    14.9   781.5    0.00 
 113   11:50   0.99   54.6    18    4.4    99    11.7   781.4    0.00 
 113   12:00   0.99   55.3    17    8.2   125    14.2   781.3    0.00 
 113   12:10   0.98   55.2    17    5.6    99    11.0   781.3    0.00 
 113   12:20   0.99   55.8    16    6.3    87    14.4   781.2    0.00 
 113   12:30   0.97   56.7    16    4.2    38    12.3   781.3    0.00 
 113   12:40   0.97   56.7    16    4.3   333     8.2   781.3    0.00 
 113   12:50   0.97   56.9    15    4.9   334    10.4   781.2    0.00 
 113   13:00   0.92   57.3    15    3.8   318     7.5   781.2    0.00 
 113   13:10   0.93   58.4    15    3.8     0     9.6   781.1    0.00 
 113   13:20   0.93   59.3    15    4.6    75    12.1   781.1    0.00 
 113   13:30   0.89   59.7    15   12.5    96    19.4   781.1    0.00 
 113   13:40   0.90   58.4    15    9.0    90    16.6   781.1    0.00 
 113   13:50   0.85   59.0    15    8.2   105    16.0   781.0    0.00 
 113   14:00   0.87   59.8    15    6.4   104    14.5   781.0    0.00 
 113   14:10   0.83   59.3    15    8.2   110    13.7   780.9    0.00 
 113   14:20   0.81   59.5    15    7.3    77    12.3   780.9    0.00 
 113   14:30   0.76   60.2    16    8.8    73    16.0   780.9    0.00 
 113   14:40   0.76   59.8    15    8.1   104    13.7   780.8    0.00 
 113   14:50   0.73   60.9    15    8.7   107    14.4   780.7    0.00 
 113   15:00   0.70   59.7    15    9.7   110    16.3   780.7    0.00 
 113   15:10   0.68   60.0    15    7.8   114    15.2   780.7    0.00 
 113   15:20   0.66   60.7    15    6.7   105    13.7   780.7    0.00 
 113   15:30   0.61   60.3    15    7.4    92    19.4   780.7    0.00 
 113   15:40   0.59   60.1    16    8.3    92    15.6   780.7    0.00 
 113   15:50   0.54   60.3    16    4.1   112    11.1   780.7    0.00 
 113   16:00   0.52   61.7    15    1.9   330     4.6   780.9    0.00 
 113   16:10   0.49   62.0    15    4.8    51    10.2   780.9    0.00 
 113   16:20   0.42   60.2    16    6.7    88    11.4   780.9    0.00 
 113   16:30   0.38   59.1    17    9.6    90    14.5   780.9    0.00 
 113   16:40   0.36   58.4    17    8.2    86    11.3   780.9    0.00 
 113   16:50   0.35   58.4    17    6.9    88    11.2   780.9    0.00 
 113   17:00   0.30   59.3    17    4.0    28     8.5   781.0    0.00 
 113   17:10   0.26   59.8    18    5.0   306    13.1   781.0    0.00 
 113   17:20   0.22   58.2    20    7.7   308    12.4   781.0    0.00 
 113   17:30   0.14   57.0    22    7.3   357    12.1   781.1    0.00 
 113   17:40   0.11   55.5    26    4.9    29     8.2   781.1    0.00 
 113   17:50   0.08   54.7    29    6.1    22    12.9   781.1    0.00 
 113   18:00   0.07   53.2    33    5.8     4     9.0   781.1    0.00 
 113   18:10   0.07   52.5    35    4.8     1     8.4   781.0    0.00 
 113   18:20   0.05   51.3    38    7.1   340    13.7   781.1    0.00 
 113   18:30   0.02   49.8    40    6.3   338    11.7   781.2    0.00 
 113   18:40   0.00   48.5    42    5.9   330    13.0   781.3    0.00 
 113   18:50   0.00   47.1    44    3.3   302     8.1   781.5    0.00 
 113   19:00   0.00   45.6    47    2.7   289     5.2   781.7    0.00 
 113   19:10   0.00   42.9    48    3.9   274     5.3   781.9    0.00 
 113   19:20   0.00   41.3    51    2.9   254     5.4   782.1    0.00 
 113   19:30   0.00   39.9    51    4.0   235     5.8   782.3    0.00 
 113   19:40   0.00   39.0    53    4.1   215     6.5   782.5    0.00 
 113   19:50   0.00   39.8    52    1.2   158     2.8   782.7    0.00 
 113   20:00   0.00   39.7    56    3.0   304     6.6   782.9    0.00 
 113   20:10   0.00   39.0    54    1.5   238     3.7   783.0    0.00 
 113   20:20   0.00   36.4    58    3.1   252     4.5   783.1    0.00 
 113   20:30   0.00   36.9    58    4.1   226     7.1   783.3    0.00 
 113   20:40   0.00   36.0    58    2.8   226     4.4   783.4    0.00 
 113   20:50   0.00   35.2    58    1.5   199     3.1   783.4    0.00 
 113   21:00   0.00   35.0    60    1.3   262     2.6   783.5    0.00 
 113   21:10   0.00   34.3    60    2.6   218     5.5   783.7    0.00 
 113   21:20   0.00   34.7    61    3.0   274     5.6   783.7    0.00 
 113   21:30   0.00   34.8    60    2.8   239     4.3   783.7    0.00 
 113   21:40   0.00   34.2    58    1.8   233     3.4   783.7    0.00 
 113   21:50   0.00   34.3    54    2.1   231     3.1   783.8    0.00 
 113   22:00   0.00   34.0    55    1.2   171     2.6   783.8    0.00 
 113   22:10   0.00   33.3    56    1.9   260     3.4   783.8    0.00 
 113   22:20   0.00   33.6    56    1.8   261     3.3   783.8    0.00 
 113   22:30   0.00   32.4    59    1.7   234     3.1   783.8    0.00 
 113   22:40   0.00   31.7    60    3.4   258     4.6   783.8    0.00 
 113   22:50   0.00   32.1    59    2.4   245     4.2   783.8    0.00 
 113   23:00   0.00   31.1    62    1.8   267     2.7   783.8    0.00 
 113   23:10   0.00   31.5    63    2.3   305     4.6   783.9    0.00 
 113   23:20   0.00   30.9    64    1.9   269     4.5   783.9    0.00 
 113   23:30   0.00   30.6    65    0.0   208     0.7   783.8    0.00 
 113   23:40   0.00   28.6    66    0.4   278     2.1   783.9    0.00 
 113   23:50   0.00   27.9    67    1.7   247     2.6   783.9    0.00 
 114    0:00   0.00   26.9    65    1.8   195     2.5   783.9    0.00 
 114    0:10   0.00   27.3    70    0.9   289     1.8   783.9    0.00 
 114    0:20   0.00   28.3    66    1.4   284     2.0   783.9    0.00 
 114    0:30   0.00   27.3    67    1.9   293     3.7   783.9    0.00 
 114    0:40   0.00   27.0    69    2.0   302     3.5   783.8    0.00 
 114    0:50   0.00   25.8    68    0.8   302     2.9   783.6    0.00 
 114    1:00   0.00   26.2    69    2.7   303     4.4   783.5    0.00 
 114    1:10   0.00   25.7    71    2.5   303     5.0   783.4    0.00 
 114    1:20   0.00   25.4    69    2.4   192     4.4   783.4    0.00 
 114    1:30   0.00   24.7    74    1.4    65     3.2   783.3    0.00 
 114    1:40   0.00   25.1    70    1.8   251     2.9   783.4    0.00 
 114    1:50   0.00   25.6    70    2.1   256     3.0   783.5    0.00 
 114    2:00   0.00   25.9    72    2.2   294     6.1   783.5    0.00 
 114    2:10   0.00   27.6    68    3.4   315     6.1   783.4    0.00 
 114    2:20   0.00   26.2    68    2.2   265     4.5   783.3    0.00 
 114    2:30   0.00   25.9    70    2.9   326     6.7   783.2    0.00 
 114    2:40   0.00   25.2    70    1.1   355     3.1   783.2    0.00 
 114    2:50   0.00   25.3    70    2.5   223     4.2   783.3    0.00 
 114    3:00   0.00   27.2    67    1.2   217     3.4   783.2    0.00 
 114    3:10   0.00   26.3    67    2.1   232     4.3   783.2    0.00 
 114    3:20   0.00   25.4    72    2.8   297     5.7   783.2    0.00 
 114    3:30   0.00   25.7    69    1.7   257     3.7   783.2    0.00 
 114    3:40   0.00   24.7    71    2.3   308     6.1   783.1    0.00 
 114    3:50   0.00   24.5    70    0.7   284     4.7   783.2    0.00 
 114    4:00   0.00   23.3    73    1.3    21     3.9   783.2    0.00 
 114    4:10   0.00   22.4    74    1.8   306     4.2   783.2    0.00 
 114    4:20   0.00   22.7    74    1.2   330     4.0   783.3    0.00 
 114    4:30   0.00   22.3    76    1.6   283     3.3   783.4    0.00 
 114    4:40   0.00   21.9    76    1.2   223     2.6   783.4    0.00 
 114    4:50   0.00   21.5    76    2.3   245     3.5   783.3    0.00 
 114    5:00   0.00   21.6    77    3.2   315     5.6   783.4    0.00 
 114    5:10   0.00   22.5    76    1.5   247     3.1   783.5    0.00 
 114    5:20   0.00   22.3    75    1.8   198     3.1   783.5    0.00 
 114    5:30   0.02   23.2    75    0.7    81     2.1   783.5    0.00 
 114    5:40   0.05   24.4    72    0.7   174     2.1   783.6    0.00 
 114    5:50   0.07   26.7    69    0.9   245     2.1   783.7    0.00 
 114    6:00   0.11   29.9    64    1.7   242     3.1   783.6    0.00 
 114    6:10   0.14   33.0    58    1.9   298     2.9   783.7    0.00 
 114    6:20   0.18   36.6    53    0.7     1     2.0   783.9    0.00 
 114    6:30   0.21   38.0    50    2.0   332     3.9   784.1    0.00 
 114    6:40   0.25   39.6    46    2.1   329     4.5   784.3    0.00 
 114    6:50   0.29   40.1    45    2.6   338     4.7   784.2    0.00 
 114    7:00   0.32   41.4    43    2.2   358     4.2   784.2    0.00 
 114    7:10   0.36   43.5    39    1.9     8     3.7   784.2    0.00 
 114    7:20   0.40   44.7    38    2.0    41     3.4   784.1    0.00 
 114    7:30   0.43   45.0    40    3.3    65     5.9   784.1    0.00 
 114    7:40   0.47   45.1    41    3.9    47     6.4   784.1    0.00 
 114    7:50   0.50   46.2    38    3.7    41     6.3   784.2    0.00 
 114    8:00   0.54   48.1    36    1.7    51     4.2   784.3    0.00 
 114    8:10   0.57   49.5    33    3.1   108     5.9   784.1    0.00 
 114    8:20   0.57   50.5    32    3.6    57     7.3   784.1    0.00 
 114    8:30   0.63   51.1    31    5.5    79     8.9   784.1    0.00 
 114    8:40   0.67   52.3    28    5.3    64     9.9   784.0    0.00 
 114    8:50   0.69   53.3    25    5.7    78     9.8   783.8    0.00 
 114    9:00   0.72   54.3    25    5.5    81     9.9   783.7    0.00 
 114    9:10   0.75   54.9    23    6.6    95    11.5   783.6    0.00 
 114    9:20   0.78   56.2    22    6.4    68    13.1   783.5    0.00 
 114    9:30   0.80   56.0    22    8.5    90    13.2   783.5    0.00 
 114    9:40   0.83   56.7    21    8.6    95    14.8   783.4    0.00 
 114    9:50   0.85   57.5    21    7.7    87    14.0   783.4    0.00 
 114   10:00   0.87   57.8    21    8.2    86    15.0   783.4    0.00 
 114   10:10   0.89   58.9    20    7.8   100    13.0   783.4    0.00 
 114   10:20   0.93   59.1    21    6.9    83    12.9   783.4    0.00 
 114   10:30   0.82   59.5    21    5.9    80    11.2   783.4    0.00 
 114   10:40   0.88   59.7    21    6.5    74    13.0   783.3    0.00 
 114   10:50   0.84   59.5    21    4.4    74    11.1   783.4    0.00 
 114   11:00   0.68   61.8    20    3.4   218     8.5   783.4    0.00 
 114   11:10   0.44   60.3    20    6.1   276    15.4   783.2    0.00 

Return to SNARL Reserve graphs page.


Western Regional Climate Center,wrcc@dri.edu